sensor_id;sensor_type;location;lat;lon;timestamp;P1;durP1;ratioP1;P2;durP2;ratioP2
70953;SDS011;58618;47.490;8.736;2022-09-03T00:02:19;9.45;;;7.60;;
70953;SDS011;58618;47.490;8.736;2022-09-03T00:05:15;10.13;;;6.88;;
70953;SDS011;58618;47.490;8.736;2022-09-03T00:08:06;10.52;;;6.88;;
70953;SDS011;58618;47.490;8.736;2022-09-03T00:10:58;12.40;;;7.47;;
70953;SDS011;58618;47.490;8.736;2022-09-03T00:13:53;9.57;;;7.05;;
70953;SDS011;58618;47.490;8.736;2022-09-03T00:16:47;11.43;;;7.65;;
70953;SDS011;58618;47.490;8.736;2022-09-03T00:19:40;14.07;;;7.80;;
70953;SDS011;58618;47.490;8.736;2022-09-03T00:22:33;9.68;;;7.10;;
70953;SDS011;58618;47.490;8.736;2022-09-03T00:25:26;11.00;;;7.37;;
70953;SDS011;58618;47.490;8.736;2022-09-03T00:28:21;11.63;;;7.22;;
70953;SDS011;58618;47.490;8.736;2022-09-03T00:31:15;10.38;;;7.63;;
70953;SDS011;58618;47.490;8.736;2022-09-03T00:34:10;10.70;;;7.65;;
70953;SDS011;58618;47.490;8.736;2022-09-03T00:37:04;10.85;;;7.80;;
70953;SDS011;58618;47.490;8.736;2022-09-03T00:39:51;11.70;;;8.13;;
70953;SDS011;58618;47.490;8.736;2022-09-03T00:42:42;13.70;;;9.50;;
70953;SDS011;58618;47.490;8.736;2022-09-03T00:45:37;12.55;;;8.95;;
70953;SDS011;58618;47.490;8.736;2022-09-03T00:48:38;9.88;;;6.47;;
70953;SDS011;58618;47.490;8.736;2022-09-03T00:51:39;6.40;;;5.05;;
70953;SDS011;58618;47.490;8.736;2022-09-03T00:54:39;9.97;;;4.53;;
70953;SDS011;58618;47.490;8.736;2022-09-03T00:57:36;9.25;;;5.20;;
70953;SDS011;58618;47.490;8.736;2022-09-03T01:00:32;6.43;;;4.65;;
70953;SDS011;58618;47.490;8.736;2022-09-03T01:03:22;8.43;;;5.40;;
70953;SDS011;58618;47.490;8.736;2022-09-03T01:06:22;5.85;;;5.13;;
70953;SDS011;58618;47.490;8.736;2022-09-03T01:09:19;8.87;;;5.03;;
70953;SDS011;58618;47.490;8.736;2022-09-03T01:12:20;9.25;;;5.90;;
70953;SDS011;58618;47.490;8.736;2022-09-03T01:15:16;9.77;;;6.13;;
70953;SDS011;58618;47.490;8.736;2022-09-03T01:18:15;11.23;;;6.75;;
70953;SDS011;58618;47.490;8.736;2022-09-03T01:21:14;9.68;;;7.40;;
70953;SDS011;58618;47.490;8.736;2022-09-03T01:27:43;10.55;;;7.65;;
70953;SDS011;58618;47.490;8.736;2022-09-03T01:30:40;10.35;;;7.05;;
70953;SDS011;58618;47.490;8.736;2022-09-03T01:33:34;11.05;;;7.57;;
70953;SDS011;58618;47.490;8.736;2022-09-03T01:36:27;10.80;;;7.85;;
70953;SDS011;58618;47.490;8.736;2022-09-03T01:39:25;14.93;;;8.00;;
70953;SDS011;58618;47.490;8.736;2022-09-03T01:42:22;9.82;;;7.65;;
70953;SDS011;58618;47.490;8.736;2022-09-03T01:45:21;11.43;;;8.15;;
70953;SDS011;58618;47.490;8.736;2022-09-03T01:48:22;14.25;;;8.95;;
70953;SDS011;58618;47.490;8.736;2022-09-03T01:51:19;12.23;;;8.10;;
70953;SDS011;58618;47.490;8.736;2022-09-03T01:54:13;11.47;;;8.17;;
70953;SDS011;58618;47.490;8.736;2022-09-03T01:57:16;13.27;;;8.82;;
70953;SDS011;58618;47.490;8.736;2022-09-03T02:00:24;11.48;;;7.75;;
70953;SDS011;58618;47.490;8.736;2022-09-03T02:03:13;9.85;;;7.82;;
70953;SDS011;58618;47.490;8.736;2022-09-03T02:06:04;12.75;;;8.02;;
70953;SDS011;58618;47.490;8.736;2022-09-03T02:08:52;12.93;;;7.73;;
70953;SDS011;58618;47.490;8.736;2022-09-03T02:11:39;11.35;;;7.70;;
70953;SDS011;58618;47.490;8.736;2022-09-03T02:14:27;10.80;;;8.15;;
70953;SDS011;58618;47.490;8.736;2022-09-03T02:17:15;9.80;;;7.78;;
70953;SDS011;58618;47.490;8.736;2022-09-03T02:20:04;11.50;;;7.40;;
70953;SDS011;58618;47.490;8.736;2022-09-03T02:22:56;9.03;;;6.90;;
70953;SDS011;58618;47.490;8.736;2022-09-03T02:25:47;9.35;;;7.18;;
70953;SDS011;58618;47.490;8.736;2022-09-03T02:28:38;10.18;;;7.40;;
70953;SDS011;58618;47.490;8.736;2022-09-03T02:31:25;10.07;;;7.63;;
70953;SDS011;58618;47.490;8.736;2022-09-03T02:34:13;11.65;;;7.70;;
70953;SDS011;58618;47.490;8.736;2022-09-03T02:37:00;11.17;;;7.70;;
70953;SDS011;58618;47.490;8.736;2022-09-03T02:40:00;9.48;;;7.07;;
70953;SDS011;58618;47.490;8.736;2022-09-03T02:42:51;10.13;;;7.03;;
70953;SDS011;58618;47.490;8.736;2022-09-03T02:45:38;7.45;;;6.00;;
70953;SDS011;58618;47.490;8.736;2022-09-03T02:48:31;12.23;;;6.72;;
70953;SDS011;58618;47.490;8.736;2022-09-03T02:51:19;9.83;;;6.43;;
70953;SDS011;58618;47.490;8.736;2022-09-03T02:54:07;8.05;;;6.40;;
70953;SDS011;58618;47.490;8.736;2022-09-03T02:56:56;7.78;;;6.15;;
70953;SDS011;58618;47.490;8.736;2022-09-03T02:59:44;8.25;;;6.50;;
70953;SDS011;58618;47.490;8.736;2022-09-03T03:02:31;7.75;;;6.15;;
70953;SDS011;58618;47.490;8.736;2022-09-03T03:05:20;8.87;;;6.30;;
70953;SDS011;58618;47.490;8.736;2022-09-03T03:08:13;9.75;;;6.07;;
70953;SDS011;58618;47.490;8.736;2022-09-03T03:11:01;7.90;;;5.93;;
70953;SDS011;58618;47.490;8.736;2022-09-03T03:13:50;8.38;;;6.18;;
70953;SDS011;58618;47.490;8.736;2022-09-03T03:16:38;9.77;;;6.47;;
70953;SDS011;58618;47.490;8.736;2022-09-03T03:19:25;7.77;;;5.93;;
70953;SDS011;58618;47.490;8.736;2022-09-03T03:22:12;7.22;;;5.88;;
70953;SDS011;58618;47.490;8.736;2022-09-03T03:24:59;6.90;;;5.82;;
70953;SDS011;58618;47.490;8.736;2022-09-03T03:27:47;6.85;;;5.20;;
70953;SDS011;58618;47.490;8.736;2022-09-03T03:30:37;7.75;;;5.25;;
70953;SDS011;58618;47.490;8.736;2022-09-03T03:33:27;8.87;;;5.70;;
70953;SDS011;58618;47.490;8.736;2022-09-03T03:36:14;10.32;;;6.50;;
70953;SDS011;58618;47.490;8.736;2022-09-03T03:39:02;7.00;;;5.80;;
70953;SDS011;58618;47.490;8.736;2022-09-03T03:41:50;9.75;;;6.10;;
70953;SDS011;58618;47.490;8.736;2022-09-03T03:44:37;8.00;;;5.88;;
70953;SDS011;58618;47.490;8.736;2022-09-03T03:47:25;7.63;;;6.30;;
70953;SDS011;58618;47.490;8.736;2022-09-03T03:50:13;8.50;;;6.60;;
70953;SDS011;58618;47.490;8.736;2022-09-03T03:53:00;9.10;;;5.80;;
70953;SDS011;58618;47.490;8.736;2022-09-03T03:55:54;8.27;;;5.28;;
70953;SDS011;58618;47.490;8.736;2022-09-03T03:58:41;8.93;;;6.00;;
70953;SDS011;58618;47.490;8.736;2022-09-03T04:01:30;10.73;;;6.03;;
70953;SDS011;58618;47.490;8.736;2022-09-03T04:04:19;9.25;;;6.15;;
70953;SDS011;58618;47.490;8.736;2022-09-03T04:07:06;11.00;;;5.60;;
70953;SDS011;58618;47.490;8.736;2022-09-03T04:09:54;7.28;;;5.43;;
70953;SDS011;58618;47.490;8.736;2022-09-03T04:12:41;9.95;;;5.95;;
70953;SDS011;58618;47.490;8.736;2022-09-03T04:15:28;7.87;;;6.03;;
70953;SDS011;58618;47.490;8.736;2022-09-03T04:18:15;6.47;;;5.40;;
70953;SDS011;58618;47.490;8.736;2022-09-03T04:21:05;7.68;;;5.53;;
70953;SDS011;58618;47.490;8.736;2022-09-03T04:23:53;7.88;;;5.63;;
70953;SDS011;58618;47.490;8.736;2022-09-03T04:26:42;6.80;;;5.63;;
70953;SDS011;58618;47.490;8.736;2022-09-03T04:29:29;7.90;;;5.67;;
70953;SDS011;58618;47.490;8.736;2022-09-03T04:32:16;7.13;;;5.82;;
70953;SDS011;58618;47.490;8.736;2022-09-03T04:35:22;7.88;;;5.65;;
70953;SDS011;58618;47.490;8.736;2022-09-03T04:38:13;6.40;;;5.03;;
70953;SDS011;58618;47.490;8.736;2022-09-03T04:41:01;6.93;;;5.55;;
70953;SDS011;58618;47.490;8.736;2022-09-03T04:43:49;9.77;;;5.57;;
70953;SDS011;58618;47.490;8.736;2022-09-03T04:46:37;7.43;;;5.32;;
70953;SDS011;58618;47.490;8.736;2022-09-03T04:49:25;6.95;;;5.43;;
70953;SDS011;58618;47.490;8.736;2022-09-03T04:52:12;7.63;;;5.38;;
70953;SDS011;58618;47.490;8.736;2022-09-03T04:55:01;7.28;;;5.72;;
70953;SDS011;58618;47.490;8.736;2022-09-03T04:57:48;7.23;;;5.70;;
70953;SDS011;58618;47.490;8.736;2022-09-03T05:00:38;6.60;;;5.40;;
70953;SDS011;58618;47.490;8.736;2022-09-03T05:03:26;7.65;;;5.47;;
70953;SDS011;58618;47.490;8.736;2022-09-03T05:06:13;7.30;;;5.70;;
70953;SDS011;58618;47.490;8.736;2022-09-03T05:09:02;6.65;;;4.63;;
70953;SDS011;58618;47.490;8.736;2022-09-03T05:11:51;6.57;;;5.00;;
70953;SDS011;58618;47.490;8.736;2022-09-03T05:14:39;6.20;;;5.03;;
70953;SDS011;58618;47.490;8.736;2022-09-03T05:17:26;6.28;;;4.70;;
70953;SDS011;58618;47.490;8.736;2022-09-03T05:20:13;8.77;;;4.68;;
70953;SDS011;58618;47.490;8.736;2022-09-03T05:23:01;6.53;;;4.80;;
70953;SDS011;58618;47.490;8.736;2022-09-03T05:25:53;5.97;;;4.37;;
70953;SDS011;58618;47.490;8.736;2022-09-03T05:28:44;6.88;;;4.55;;
70953;SDS011;58618;47.490;8.736;2022-09-03T05:31:32;6.25;;;4.68;;
70953;SDS011;58618;47.490;8.736;2022-09-03T05:34:20;6.35;;;4.80;;
70953;SDS011;58618;47.490;8.736;2022-09-03T05:37:08;5.40;;;4.15;;
70953;SDS011;58618;47.490;8.736;2022-09-03T05:39:56;8.00;;;4.73;;
70953;SDS011;58618;47.490;8.736;2022-09-03T05:42:43;5.78;;;4.40;;
70953;SDS011;58618;47.490;8.736;2022-09-03T05:45:35;10.05;;;4.50;;
70953;SDS011;58618;47.490;8.736;2022-09-03T05:48:22;5.10;;;4.32;;
70953;SDS011;58618;47.490;8.736;2022-09-03T05:51:10;5.57;;;3.95;;
70953;SDS011;58618;47.490;8.736;2022-09-03T05:54:01;5.47;;;4.00;;
70953;SDS011;58618;47.490;8.736;2022-09-03T05:56:48;4.88;;;3.92;;
70953;SDS011;58618;47.490;8.736;2022-09-03T05:59:36;5.50;;;4.00;;
70953;SDS011;58618;47.490;8.736;2022-09-03T06:02:24;5.53;;;3.88;;
70953;SDS011;58618;47.490;8.736;2022-09-03T06:05:12;7.85;;;4.50;;
70953;SDS011;58618;47.490;8.736;2022-09-03T06:08:01;4.83;;;3.93;;
70953;SDS011;58618;47.490;8.736;2022-09-03T06:10:49;6.13;;;4.13;;
70953;SDS011;58618;47.490;8.736;2022-09-03T06:13:36;5.55;;;3.70;;
70953;SDS011;58618;47.490;8.736;2022-09-03T06:16:23;5.43;;;4.05;;
70953;SDS011;58618;47.490;8.736;2022-09-03T06:19:15;6.60;;;3.97;;
70953;SDS011;58618;47.490;8.736;2022-09-03T06:22:02;7.57;;;4.57;;
70953;SDS011;58618;47.490;8.736;2022-09-03T06:24:50;6.68;;;4.47;;
70953;SDS011;58618;47.490;8.736;2022-09-03T06:27:37;5.40;;;4.63;;
70953;SDS011;58618;47.490;8.736;2022-09-03T06:30:26;8.15;;;4.53;;
70953;SDS011;58618;47.490;8.736;2022-09-03T06:33:14;6.35;;;4.72;;
70953;SDS011;58618;47.490;8.736;2022-09-03T06:36:05;4.77;;;4.20;;
70953;SDS011;58618;47.490;8.736;2022-09-03T06:38:54;5.60;;;4.00;;
70953;SDS011;58618;47.490;8.736;2022-09-03T06:41:42;8.57;;;4.18;;
70953;SDS011;58618;47.490;8.736;2022-09-03T06:44:30;7.57;;;4.00;;
70953;SDS011;58618;47.490;8.736;2022-09-03T06:47:18;6.07;;;4.80;;
70953;SDS011;58618;47.490;8.736;2022-09-03T06:50:05;6.57;;;4.30;;
70953;SDS011;58618;47.490;8.736;2022-09-03T06:52:54;6.63;;;4.13;;
70953;SDS011;58618;47.490;8.736;2022-09-03T06:55:41;5.22;;;4.15;;
70953;SDS011;58618;47.490;8.736;2022-09-03T06:58:30;5.40;;;3.88;;
70953;SDS011;58618;47.490;8.736;2022-09-03T07:01:21;5.32;;;3.70;;
70953;SDS011;58618;47.490;8.736;2022-09-03T07:04:10;4.97;;;3.40;;
70953;SDS011;58618;47.490;8.736;2022-09-03T07:07:00;4.57;;;3.60;;
70953;SDS011;58618;47.490;8.736;2022-09-03T07:09:49;4.20;;;3.17;;
70953;SDS011;58618;47.490;8.736;2022-09-03T07:12:37;4.30;;;3.40;;
70953;SDS011;58618;47.490;8.736;2022-09-03T07:15:25;3.65;;;2.78;;
70953;SDS011;58618;47.490;8.736;2022-09-03T07:18:13;4.30;;;2.80;;
70953;SDS011;58618;47.490;8.736;2022-09-03T07:21:00;3.10;;;2.60;;
70953;SDS011;58618;47.490;8.736;2022-09-03T07:23:49;2.83;;;2.30;;
70953;SDS011;58618;47.490;8.736;2022-09-03T07:26:39;2.97;;;2.00;;
70953;SDS011;58618;47.490;8.736;2022-09-03T07:29:29;2.67;;;2.47;;
70953;SDS011;58618;47.490;8.736;2022-09-03T07:32:16;3.07;;;2.13;;
70953;SDS011;58618;47.490;8.736;2022-09-03T07:35:04;3.35;;;2.53;;
70953;SDS011;58618;47.490;8.736;2022-09-03T07:37:51;4.15;;;2.40;;
70953;SDS011;58618;47.490;8.736;2022-09-03T07:40:39;2.42;;;2.22;;
70953;SDS011;58618;47.490;8.736;2022-09-03T07:43:28;3.20;;;2.45;;
70953;SDS011;58618;47.490;8.736;2022-09-03T07:46:20;3.37;;;2.30;;
70953;SDS011;58618;47.490;8.736;2022-09-03T07:49:09;2.83;;;2.20;;
70953;SDS011;58618;47.490;8.736;2022-09-03T07:51:57;2.72;;;2.10;;
70953;SDS011;58618;47.490;8.736;2022-09-03T07:54:44;2.22;;;1.75;;
70953;SDS011;58618;47.490;8.736;2022-09-03T07:57:31;2.33;;;1.92;;
70953;SDS011;58618;47.490;8.736;2022-09-03T08:00:20;4.03;;;2.20;;
70953;SDS011;58618;47.490;8.736;2022-09-03T08:03:08;2.58;;;1.90;;
70953;SDS011;58618;47.490;8.736;2022-09-03T08:05:58;2.67;;;2.10;;
70953;SDS011;58618;47.490;8.736;2022-09-03T08:08:47;3.55;;;1.98;;
70953;SDS011;58618;47.490;8.736;2022-09-03T08:11:36;2.30;;;2.05;;
70953;SDS011;58618;47.490;8.736;2022-09-03T08:14:24;2.80;;;2.10;;
70953;SDS011;58618;47.490;8.736;2022-09-03T08:17:13;2.55;;;2.28;;
70953;SDS011;58618;47.490;8.736;2022-09-03T08:20:01;2.58;;;2.38;;
70953;SDS011;58618;47.490;8.736;2022-09-03T08:22:48;2.30;;;2.10;;
70953;SDS011;58618;47.490;8.736;2022-09-03T08:25:36;3.38;;;2.15;;
70953;SDS011;58618;47.490;8.736;2022-09-03T08:28:23;2.77;;;1.97;;
70953;SDS011;58618;47.490;8.736;2022-09-03T08:31:11;2.58;;;2.00;;
70953;SDS011;58618;47.490;8.736;2022-09-03T08:34:02;2.47;;;2.17;;
70953;SDS011;58618;47.490;8.736;2022-09-03T08:36:51;2.42;;;1.90;;
70953;SDS011;58618;47.490;8.736;2022-09-03T08:39:39;2.22;;;1.80;;
70953;SDS011;58618;47.490;8.736;2022-09-03T08:42:32;2.83;;;2.30;;
70953;SDS011;58618;47.490;8.736;2022-09-03T08:45:35;3.85;;;2.10;;
70953;SDS011;58618;47.490;8.736;2022-09-03T08:48:23;2.50;;;2.00;;
70953;SDS011;58618;47.490;8.736;2022-09-03T08:51:14;2.10;;;1.88;;
70953;SDS011;58618;47.490;8.736;2022-09-03T08:54:05;2.97;;;1.80;;
70953;SDS011;58618;47.490;8.736;2022-09-03T08:56:58;2.40;;;1.80;;
70953;SDS011;58618;47.490;8.736;2022-09-03T08:59:48;3.63;;;1.90;;
70953;SDS011;58618;47.490;8.736;2022-09-03T09:02:44;2.83;;;2.20;;
70953;SDS011;58618;47.490;8.736;2022-09-03T09:05:42;4.43;;;2.22;;
70953;SDS011;58618;47.490;8.736;2022-09-03T09:08:44;3.42;;;2.28;;
70953;SDS011;58618;47.490;8.736;2022-09-03T09:11:46;2.70;;;2.50;;
70953;SDS011;58618;47.490;8.736;2022-09-03T09:14:45;3.47;;;2.95;;
70953;SDS011;58618;47.490;8.736;2022-09-03T09:17:47;2.97;;;2.63;;
70953;SDS011;58618;47.490;8.736;2022-09-03T09:20:44;4.55;;;3.05;;
70953;SDS011;58618;47.490;8.736;2022-09-03T09:23:36;5.18;;;3.50;;
70953;SDS011;58618;47.490;8.736;2022-09-03T09:26:29;4.33;;;3.07;;
70953;SDS011;58618;47.490;8.736;2022-09-03T09:29:17;3.47;;;2.50;;
70953;SDS011;58618;47.490;8.736;2022-09-03T09:32:06;4.93;;;3.35;;
70953;SDS011;58618;47.490;8.736;2022-09-03T09:34:56;5.10;;;3.00;;
70953;SDS011;58618;47.490;8.736;2022-09-03T09:37:47;4.00;;;2.90;;
70953;SDS011;58618;47.490;8.736;2022-09-03T09:40:37;4.10;;;3.13;;
70953;SDS011;58618;47.490;8.736;2022-09-03T09:43:28;4.15;;;2.97;;
70953;SDS011;58618;47.490;8.736;2022-09-03T09:46:19;4.90;;;2.78;;
70953;SDS011;58618;47.490;8.736;2022-09-03T09:49:17;4.15;;;2.95;;
70953;SDS011;58618;47.490;8.736;2022-09-03T09:52:13;4.47;;;3.00;;
70953;SDS011;58618;47.490;8.736;2022-09-03T09:55:06;3.20;;;2.80;;
70953;SDS011;58618;47.490;8.736;2022-09-03T09:58:03;6.53;;;2.58;;
70953;SDS011;58618;47.490;8.736;2022-09-03T10:00:56;3.97;;;2.90;;
70953;SDS011;58618;47.490;8.736;2022-09-03T10:03:47;4.28;;;2.58;;
70953;SDS011;58618;47.490;8.736;2022-09-03T10:06:37;3.97;;;2.83;;
70953;SDS011;58618;47.490;8.736;2022-09-03T10:09:41;5.00;;;2.90;;
70953;SDS011;58618;47.490;8.736;2022-09-03T10:12:32;4.60;;;2.90;;
70953;SDS011;58618;47.490;8.736;2022-09-03T10:15:27;4.00;;;2.45;;
70953;SDS011;58618;47.490;8.736;2022-09-03T10:18:23;4.65;;;2.42;;
70953;SDS011;58618;47.490;8.736;2022-09-03T10:21:23;2.53;;;2.22;;
70953;SDS011;58618;47.490;8.736;2022-09-03T10:24:23;4.10;;;2.20;;
70953;SDS011;58618;47.490;8.736;2022-09-03T10:27:26;2.42;;;2.00;;
70953;SDS011;58618;47.490;8.736;2022-09-03T10:30:13;3.30;;;2.30;;
70953;SDS011;58618;47.490;8.736;2022-09-03T10:33:04;2.92;;;2.30;;
70953;SDS011;58618;47.490;8.736;2022-09-03T10:36:03;4.35;;;2.13;;
70953;SDS011;58618;47.490;8.736;2022-09-03T10:38:58;2.80;;;2.00;;
70953;SDS011;58618;47.490;8.736;2022-09-03T10:41:55;3.20;;;2.00;;
70953;SDS011;58618;47.490;8.736;2022-09-03T10:44:55;2.17;;;1.92;;
70953;SDS011;58618;47.490;8.736;2022-09-03T10:48:10;2.75;;;2.10;;
70953;SDS011;58618;47.490;8.736;2022-09-03T10:51:15;3.00;;;2.22;;
70953;SDS011;58618;47.490;8.736;2022-09-03T10:54:09;3.40;;;2.07;;
70953;SDS011;58618;47.490;8.736;2022-09-03T10:57:11;2.20;;;1.88;;
70953;SDS011;58618;47.490;8.736;2022-09-03T11:00:08;2.92;;;2.08;;
70953;SDS011;58618;47.490;8.736;2022-09-03T11:03:22;2.92;;;1.98;;
70953;SDS011;58618;47.490;8.736;2022-09-03T11:06:33;2.72;;;2.00;;
70953;SDS011;58618;47.490;8.736;2022-09-03T11:09:28;4.57;;;2.13;;
70953;SDS011;58618;47.490;8.736;2022-09-03T11:12:22;3.97;;;2.30;;
70953;SDS011;58618;47.490;8.736;2022-09-03T11:15:18;2.80;;;2.08;;
70953;SDS011;58618;47.490;8.736;2022-09-03T11:18:13;3.78;;;1.90;;
70953;SDS011;58618;47.490;8.736;2022-09-03T11:21:06;2.92;;;1.75;;
70953;SDS011;58618;47.490;8.736;2022-09-03T11:24:02;2.40;;;1.50;;
70953;SDS011;58618;47.490;8.736;2022-09-03T11:26:54;2.42;;;1.60;;
70953;SDS011;58618;47.490;8.736;2022-09-03T11:29:49;2.10;;;1.48;;
70953;SDS011;58618;47.490;8.736;2022-09-03T11:32:44;3.60;;;1.80;;
70953;SDS011;58618;47.490;8.736;2022-09-03T11:35:38;2.20;;;1.55;;
70953;SDS011;58618;47.490;8.736;2022-09-03T11:38:28;2.50;;;1.50;;
70953;SDS011;58618;47.490;8.736;2022-09-03T11:41:23;3.17;;;1.60;;
70953;SDS011;58618;47.490;8.736;2022-09-03T11:44:16;1.50;;;1.40;;
70953;SDS011;58618;47.490;8.736;2022-09-03T11:47:12;2.95;;;1.50;;
70953;SDS011;58618;47.490;8.736;2022-09-03T11:50:04;1.55;;;1.33;;
70953;SDS011;58618;47.490;8.736;2022-09-03T11:52:54;2.40;;;1.40;;
70953;SDS011;58618;47.490;8.736;2022-09-03T11:55:55;2.03;;;1.40;;
70953;SDS011;58618;47.490;8.736;2022-09-03T11:58:57;1.83;;;1.20;;
70953;SDS011;58618;47.490;8.736;2022-09-03T12:01:48;4.28;;;1.52;;
70953;SDS011;58618;47.490;8.736;2022-09-03T12:04:39;1.63;;;1.30;;
70953;SDS011;58618;47.490;8.736;2022-09-03T12:07:37;2.00;;;1.40;;
70953;SDS011;58618;47.490;8.736;2022-09-03T12:10:39;2.50;;;1.30;;
70953;SDS011;58618;47.490;8.736;2022-09-03T12:13:35;2.13;;;1.10;;
70953;SDS011;58618;47.490;8.736;2022-09-03T12:16:46;1.30;;;1.10;;
70953;SDS011;58618;47.490;8.736;2022-09-03T12:19:41;2.08;;;1.20;;
70953;SDS011;58618;47.490;8.736;2022-09-03T12:22:35;1.47;;;1.30;;
70953;SDS011;58618;47.490;8.736;2022-09-03T12:25:24;1.80;;;1.30;;
70953;SDS011;58618;47.490;8.736;2022-09-03T12:28:12;1.88;;;1.15;;
70953;SDS011;58618;47.490;8.736;2022-09-03T12:31:07;1.40;;;1.20;;
70953;SDS011;58618;47.490;8.736;2022-09-03T12:34:08;1.45;;;1.20;;
70953;SDS011;58618;47.490;8.736;2022-09-03T12:36:58;1.20;;;1.00;;
70953;SDS011;58618;47.490;8.736;2022-09-03T12:39:49;1.58;;;1.27;;
70953;SDS011;58618;47.490;8.736;2022-09-03T12:42:37;2.85;;;1.30;;
70953;SDS011;58618;47.490;8.736;2022-09-03T12:45:25;1.58;;;1.10;;
70953;SDS011;58618;47.490;8.736;2022-09-03T12:48:13;2.75;;;1.20;;
70953;SDS011;58618;47.490;8.736;2022-09-03T12:51:02;1.30;;;1.10;;
70953;SDS011;58618;47.490;8.736;2022-09-03T12:53:50;3.15;;;1.40;;
70953;SDS011;58618;47.490;8.736;2022-09-03T12:56:38;1.30;;;1.20;;
70953;SDS011;58618;47.490;8.736;2022-09-03T12:59:27;1.40;;;1.20;;
70953;SDS011;58618;47.490;8.736;2022-09-03T13:02:21;1.75;;;1.30;;
70953;SDS011;58618;47.490;8.736;2022-09-03T13:05:13;2.23;;;1.30;;
70953;SDS011;58618;47.490;8.736;2022-09-03T13:08:04;2.05;;;1.20;;
70953;SDS011;58618;47.490;8.736;2022-09-03T13:10:55;1.60;;;1.23;;
70953;SDS011;58618;47.490;8.736;2022-09-03T13:13:50;2.30;;;1.30;;
70953;SDS011;58618;47.490;8.736;2022-09-03T13:16:46;1.60;;;1.15;;
70953;SDS011;58618;47.490;8.736;2022-09-03T13:19:50;3.20;;;1.50;;
70953;SDS011;58618;47.490;8.736;2022-09-03T13:22:57;1.80;;;1.00;;
70953;SDS011;58618;47.490;8.736;2022-09-03T13:25:56;1.60;;;1.13;;
70953;SDS011;58618;47.490;8.736;2022-09-03T13:28:55;1.83;;;1.10;;
70953;SDS011;58618;47.490;8.736;2022-09-03T13:31:59;1.30;;;1.10;;
70953;SDS011;58618;47.490;8.736;2022-09-03T13:34:56;1.87;;;1.30;;
70953;SDS011;58618;47.490;8.736;2022-09-03T13:37:48;1.42;;;1.30;;
70953;SDS011;58618;47.490;8.736;2022-09-03T13:40:44;2.13;;;1.10;;
70953;SDS011;58618;47.490;8.736;2022-09-03T13:43:38;1.95;;;1.33;;
70953;SDS011;58618;47.490;8.736;2022-09-03T13:46:29;1.85;;;1.30;;
70953;SDS011;58618;47.490;8.736;2022-09-03T13:49:26;2.80;;;1.23;;
70953;SDS011;58618;47.490;8.736;2022-09-03T13:52:40;1.63;;;1.40;;
70953;SDS011;58618;47.490;8.736;2022-09-03T13:55:33;4.22;;;1.23;;
70953;SDS011;58618;47.490;8.736;2022-09-03T13:58:28;2.25;;;1.30;;
70953;SDS011;58618;47.490;8.736;2022-09-03T14:01:20;2.08;;;1.30;;
70953;SDS011;58618;47.490;8.736;2022-09-03T14:04:13;1.60;;;1.20;;
70953;SDS011;58618;47.490;8.736;2022-09-03T14:07:10;2.20;;;1.35;;
70953;SDS011;58618;47.490;8.736;2022-09-03T14:10:03;2.10;;;1.33;;
70953;SDS011;58618;47.490;8.736;2022-09-03T14:13:01;2.47;;;1.42;;
70953;SDS011;58618;47.490;8.736;2022-09-03T14:15:59;1.77;;;1.40;;
70953;SDS011;58618;47.490;8.736;2022-09-03T14:18:55;3.43;;;1.57;;
70953;SDS011;58618;47.490;8.736;2022-09-03T14:21:46;3.65;;;1.60;;
70953;SDS011;58618;47.490;8.736;2022-09-03T14:24:43;1.83;;;1.30;;
70953;SDS011;58618;47.490;8.736;2022-09-03T14:27:34;1.75;;;1.38;;
70953;SDS011;58618;47.490;8.736;2022-09-03T14:30:29;2.45;;;1.77;;
70953;SDS011;58618;47.490;8.736;2022-09-03T14:33:24;2.17;;;1.57;;
70953;SDS011;58618;47.490;8.736;2022-09-03T14:36:22;2.75;;;1.60;;
70953;SDS011;58618;47.490;8.736;2022-09-03T14:42:31;3.15;;;1.70;;
70953;SDS011;58618;47.490;8.736;2022-09-03T14:45:47;2.70;;;1.58;;
70953;SDS011;58618;47.490;8.736;2022-09-03T14:48:56;1.90;;;1.70;;
70953;SDS011;58618;47.490;8.736;2022-09-03T14:52:00;2.17;;;1.63;;
70953;SDS011;58618;47.490;8.736;2022-09-03T14:55:00;2.42;;;1.52;;
70953;SDS011;58618;47.490;8.736;2022-09-03T14:58:03;2.03;;;1.70;;
70953;SDS011;58618;47.490;8.736;2022-09-03T15:01:01;2.20;;;1.70;;
70953;SDS011;58618;47.490;8.736;2022-09-03T15:04:11;2.83;;;1.80;;
70953;SDS011;58618;47.490;8.736;2022-09-03T15:07:20;2.72;;;1.80;;
70953;SDS011;58618;47.490;8.736;2022-09-03T15:10:17;3.05;;;1.90;;
70953;SDS011;58618;47.490;8.736;2022-09-03T15:13:14;2.90;;;1.88;;
70953;SDS011;58618;47.490;8.736;2022-09-03T15:16:07;2.47;;;1.70;;
70953;SDS011;58618;47.490;8.736;2022-09-03T15:19:12;2.43;;;1.87;;
70953;SDS011;58618;47.490;8.736;2022-09-03T15:22:12;2.42;;;2.00;;
70953;SDS011;58618;47.490;8.736;2022-09-03T15:25:12;4.47;;;2.15;;
70953;SDS011;58618;47.490;8.736;2022-09-03T15:28:08;2.92;;;2.33;;
70953;SDS011;58618;47.490;8.736;2022-09-03T15:31:08;3.70;;;1.75;;
70953;SDS011;58618;47.490;8.736;2022-09-03T15:34:04;3.03;;;2.20;;
70953;SDS011;58618;47.490;8.736;2022-09-03T15:37:01;2.85;;;2.05;;
70953;SDS011;58618;47.490;8.736;2022-09-03T15:39:58;2.00;;;1.80;;
70953;SDS011;58618;47.490;8.736;2022-09-03T15:42:54;2.30;;;1.85;;
70953;SDS011;58618;47.490;8.736;2022-09-03T15:45:50;3.20;;;2.15;;
70953;SDS011;58618;47.490;8.736;2022-09-03T15:48:44;4.57;;;3.07;;
70953;SDS011;58618;47.490;8.736;2022-09-03T15:51:40;3.17;;;2.45;;
70953;SDS011;58618;47.490;8.736;2022-09-03T15:54:36;2.88;;;1.98;;
70953;SDS011;58618;47.490;8.736;2022-09-03T15:57:30;2.30;;;1.80;;
70953;SDS011;58618;47.490;8.736;2022-09-03T16:00:22;4.10;;;1.88;;
70953;SDS011;58618;47.490;8.736;2022-09-03T16:03:10;2.77;;;1.80;;
70953;SDS011;58618;47.490;8.736;2022-09-03T16:06:02;2.80;;;2.10;;
70953;SDS011;58618;47.490;8.736;2022-09-03T16:08:52;3.97;;;1.50;;
70953;SDS011;58618;47.490;8.736;2022-09-03T16:11:44;2.75;;;1.80;;
70953;SDS011;58618;47.490;8.736;2022-09-03T16:14:39;2.38;;;1.88;;
70953;SDS011;58618;47.490;8.736;2022-09-03T16:17:35;4.37;;;1.67;;
70953;SDS011;58618;47.490;8.736;2022-09-03T16:20:32;2.30;;;1.90;;
70953;SDS011;58618;47.490;8.736;2022-09-03T16:23:22;3.70;;;2.10;;
70953;SDS011;58618;47.490;8.736;2022-09-03T16:26:15;3.42;;;2.00;;
70953;SDS011;58618;47.490;8.736;2022-09-03T16:29:08;4.03;;;2.10;;
70953;SDS011;58618;47.490;8.736;2022-09-03T16:32:02;1.70;;;1.47;;
70953;SDS011;58618;47.490;8.736;2022-09-03T16:35:15;3.67;;;1.88;;
70953;SDS011;58618;47.490;8.736;2022-09-03T16:38:15;3.22;;;2.13;;
70953;SDS011;58618;47.490;8.736;2022-09-03T16:41:13;3.58;;;2.03;;
70953;SDS011;58618;47.490;8.736;2022-09-03T16:44:10;2.45;;;1.98;;
70953;SDS011;58618;47.490;8.736;2022-09-03T16:47:05;4.13;;;2.40;;
70953;SDS011;58618;47.490;8.736;2022-09-03T16:50:03;2.20;;;2.00;;
70953;SDS011;58618;47.490;8.736;2022-09-03T16:53:03;2.55;;;1.98;;
70953;SDS011;58618;47.490;8.736;2022-09-03T16:56:03;2.50;;;2.17;;
70953;SDS011;58618;47.490;8.736;2022-09-03T16:59:06;5.28;;;2.30;;
70953;SDS011;58618;47.490;8.736;2022-09-03T17:02:07;3.30;;;1.90;;
70953;SDS011;58618;47.490;8.736;2022-09-03T17:05:13;3.85;;;2.00;;
70953;SDS011;58618;47.490;8.736;2022-09-03T17:08:24;2.13;;;1.83;;
70953;SDS011;58618;47.490;8.736;2022-09-03T17:11:25;3.60;;;2.33;;
70953;SDS011;58618;47.490;8.736;2022-09-03T17:17:59;3.57;;;1.83;;
70953;SDS011;58618;47.490;8.736;2022-09-03T17:21:00;4.30;;;1.90;;
70953;SDS011;58618;47.490;8.736;2022-09-03T17:24:04;2.40;;;2.08;;
70953;SDS011;58618;47.490;8.736;2022-09-03T17:27:20;3.72;;;1.63;;
70953;SDS011;58618;47.490;8.736;2022-09-03T17:30:16;4.43;;;2.17;;
70953;SDS011;58618;47.490;8.736;2022-09-03T17:33:16;4.00;;;2.10;;